sensor_id;sensor_type;location;lat;lon;timestamp;P1;durP1;ratioP1;P2;durP2;ratioP2
5900;SDS011;2976;49.764;9.796;2023-03-01T00:00:12;27.20;;;11.35;;
5900;SDS011;2976;49.764;9.796;2023-03-01T00:02:38;21.00;;;11.20;;
5900;SDS011;2976;49.764;9.796;2023-03-01T00:05:03;20.83;;;12.40;;
5900;SDS011;2976;49.764;9.796;2023-03-01T00:07:29;20.95;;;12.00;;
5900;SDS011;2976;49.764;9.796;2023-03-01T00:09:55;20.70;;;11.13;;
5900;SDS011;2976;49.764;9.796;2023-03-01T00:12:20;20.33;;;10.80;;
5900;SDS011;2976;49.764;9.796;2023-03-01T00:14:46;21.17;;;11.07;;
5900;SDS011;2976;49.764;9.796;2023-03-01T00:17:11;23.60;;;12.70;;
5900;SDS011;2976;49.764;9.796;2023-03-01T00:19:37;27.73;;;10.63;;
5900;SDS011;2976;49.764;9.796;2023-03-01T00:22:03;26.23;;;12.23;;
5900;SDS011;2976;49.764;9.796;2023-03-01T00:24:28;18.13;;;11.13;;
5900;SDS011;2976;49.764;9.796;2023-03-01T00:26:54;20.27;;;11.50;;
5900;SDS011;2976;49.764;9.796;2023-03-01T00:29:23;18.73;;;11.00;;
5900;SDS011;2976;49.764;9.796;2023-03-01T00:31:49;19.00;;;10.57;;
5900;SDS011;2976;49.764;9.796;2023-03-01T00:34:15;22.00;;;12.10;;
5900;SDS011;2976;49.764;9.796;2023-03-01T00:36:41;26.10;;;11.30;;
5900;SDS011;2976;49.764;9.796;2023-03-01T00:39:09;20.73;;;11.70;;
5900;SDS011;2976;49.764;9.796;2023-03-01T00:41:37;25.23;;;12.20;;
5900;SDS011;2976;49.764;9.796;2023-03-01T00:44:02;20.83;;;11.93;;
5900;SDS011;2976;49.764;9.796;2023-03-01T00:46:28;24.43;;;12.20;;
5900;SDS011;2976;49.764;9.796;2023-03-01T00:48:55;29.05;;;12.70;;
5900;SDS011;2976;49.764;9.796;2023-03-01T00:51:23;26.50;;;13.70;;
5900;SDS011;2976;49.764;9.796;2023-03-01T00:53:54;27.92;;;12.43;;
5900;SDS011;2976;49.764;9.796;2023-03-01T00:56:22;23.33;;;12.50;;
5900;SDS011;2976;49.764;9.796;2023-03-01T00:58:48;25.88;;;13.50;;
5900;SDS011;2976;49.764;9.796;2023-03-01T01:01:15;22.00;;;11.20;;
5900;SDS011;2976;49.764;9.796;2023-03-01T01:03:53;23.20;;;12.43;;
5900;SDS011;2976;49.764;9.796;2023-03-01T01:06:28;20.25;;;11.55;;
5900;SDS011;2976;49.764;9.796;2023-03-01T01:08:56;21.67;;;11.65;;
5900;SDS011;2976;49.764;9.796;2023-03-01T01:11:22;19.67;;;10.50;;
5900;SDS011;2976;49.764;9.796;2023-03-01T01:13:49;23.70;;;10.80;;
5900;SDS011;2976;49.764;9.796;2023-03-01T01:16:16;24.92;;;12.30;;
5900;SDS011;2976;49.764;9.796;2023-03-01T01:18:43;21.50;;;10.80;;
5900;SDS011;2976;49.764;9.796;2023-03-01T01:21:11;25.05;;;12.60;;
5900;SDS011;2976;49.764;9.796;2023-03-01T01:23:39;26.08;;;12.23;;
5900;SDS011;2976;49.764;9.796;2023-03-01T01:26:16;24.33;;;11.55;;
5900;SDS011;2976;49.764;9.796;2023-03-01T01:28:43;30.80;;;13.20;;
5900;SDS011;2976;49.764;9.796;2023-03-01T01:31:09;26.05;;;12.90;;
5900;SDS011;2976;49.764;9.796;2023-03-01T01:33:35;24.53;;;12.77;;
5900;SDS011;2976;49.764;9.796;2023-03-01T01:36:02;22.42;;;12.68;;
5900;SDS011;2976;49.764;9.796;2023-03-01T01:38:28;25.75;;;13.38;;
5900;SDS011;2976;49.764;9.796;2023-03-01T01:40:54;23.67;;;11.53;;
5900;SDS011;2976;49.764;9.796;2023-03-01T01:43:27;22.97;;;12.73;;
5900;SDS011;2976;49.764;9.796;2023-03-01T01:46:01;22.92;;;12.35;;
5900;SDS011;2976;49.764;9.796;2023-03-01T01:48:40;27.27;;;13.32;;
5900;SDS011;2976;49.764;9.796;2023-03-01T01:51:11;20.70;;;11.85;;
5900;SDS011;2976;49.764;9.796;2023-03-01T01:53:42;25.10;;;13.65;;
5900;SDS011;2976;49.764;9.796;2023-03-01T01:56:12;22.85;;;12.40;;
5900;SDS011;2976;49.764;9.796;2023-03-01T01:58:39;21.38;;;11.70;;
5900;SDS011;2976;49.764;9.796;2023-03-01T02:01:07;30.20;;;13.15;;
5900;SDS011;2976;49.764;9.796;2023-03-01T02:03:33;25.00;;;11.77;;
5900;SDS011;2976;49.764;9.796;2023-03-01T02:06:06;25.25;;;11.70;;
5900;SDS011;2976;49.764;9.796;2023-03-01T02:08:36;23.08;;;11.68;;
5900;SDS011;2976;49.764;9.796;2023-03-01T02:11:04;27.60;;;12.63;;
5900;SDS011;2976;49.764;9.796;2023-03-01T02:13:31;23.80;;;12.87;;
5900;SDS011;2976;49.764;9.796;2023-03-01T02:15:57;26.27;;;12.20;;
5900;SDS011;2976;49.764;9.796;2023-03-01T02:18:23;28.20;;;12.00;;
5900;SDS011;2976;49.764;9.796;2023-03-01T02:23:27;19.23;;;11.20;;
5900;SDS011;2976;49.764;9.796;2023-03-01T02:25:58;27.48;;;12.48;;
5900;SDS011;2976;49.764;9.796;2023-03-01T02:28:32;20.42;;;11.65;;
5900;SDS011;2976;49.764;9.796;2023-03-01T02:31:00;22.75;;;11.70;;
5900;SDS011;2976;49.764;9.796;2023-03-01T02:33:46;24.88;;;11.85;;
5900;SDS011;2976;49.764;9.796;2023-03-01T02:36:21;29.88;;;13.48;;
5900;SDS011;2976;49.764;9.796;2023-03-01T02:38:51;25.50;;;13.48;;
5900;SDS011;2976;49.764;9.796;2023-03-01T02:41:19;29.27;;;13.60;;
5900;SDS011;2976;49.764;9.796;2023-03-01T02:43:45;22.40;;;11.82;;
5900;SDS011;2976;49.764;9.796;2023-03-01T02:46:15;23.27;;;11.50;;
5900;SDS011;2976;49.764;9.796;2023-03-01T02:48:45;23.48;;;12.57;;
5900;SDS011;2976;49.764;9.796;2023-03-01T02:57:17;21.27;;;11.80;;
5900;SDS011;2976;49.764;9.796;2023-03-01T02:59:43;30.38;;;13.10;;
5900;SDS011;2976;49.764;9.796;2023-03-01T03:02:19;27.63;;;14.27;;
5900;SDS011;2976;49.764;9.796;2023-03-01T03:04:47;25.88;;;12.50;;
5900;SDS011;2976;49.764;9.796;2023-03-01T03:07:12;23.27;;;11.13;;
5900;SDS011;2976;49.764;9.796;2023-03-01T03:09:38;28.87;;;13.63;;
5900;SDS011;2976;49.764;9.796;2023-03-01T03:12:03;21.53;;;11.77;;
5900;SDS011;2976;49.764;9.796;2023-03-01T03:14:29;26.13;;;12.80;;
5900;SDS011;2976;49.764;9.796;2023-03-01T03:16:55;30.37;;;12.63;;
5900;SDS011;2976;49.764;9.796;2023-03-01T03:19:20;22.97;;;12.90;;
5900;SDS011;2976;49.764;9.796;2023-03-01T03:21:46;24.60;;;12.87;;
5900;SDS011;2976;49.764;9.796;2023-03-01T03:24:12;29.20;;;13.40;;
5900;SDS011;2976;49.764;9.796;2023-03-01T03:26:37;29.20;;;13.17;;
5900;SDS011;2976;49.764;9.796;2023-03-01T03:29:03;26.20;;;12.93;;
5900;SDS011;2976;49.764;9.796;2023-03-01T03:31:28;21.07;;;12.27;;
5900;SDS011;2976;49.764;9.796;2023-03-01T03:33:54;30.43;;;14.20;;
5900;SDS011;2976;49.764;9.796;2023-03-01T03:36:21;27.95;;;13.10;;
5900;SDS011;2976;49.764;9.796;2023-03-01T03:38:48;25.10;;;12.30;;
5900;SDS011;2976;49.764;9.796;2023-03-01T03:41:14;25.20;;;12.97;;
5900;SDS011;2976;49.764;9.796;2023-03-01T03:43:41;29.55;;;12.70;;
5900;SDS011;2976;49.764;9.796;2023-03-01T03:46:09;32.70;;;13.60;;
5900;SDS011;2976;49.764;9.796;2023-03-01T03:48:37;27.70;;;13.07;;
5900;SDS011;2976;49.764;9.796;2023-03-01T03:51:04;26.48;;;13.50;;
5900;SDS011;2976;49.764;9.796;2023-03-01T03:53:30;22.63;;;12.18;;
5900;SDS011;2976;49.764;9.796;2023-03-01T03:55:56;24.43;;;13.03;;
5900;SDS011;2976;49.764;9.796;2023-03-01T03:58:23;27.00;;;13.13;;
5900;SDS011;2976;49.764;9.796;2023-03-01T04:00:51;24.95;;;13.85;;
5900;SDS011;2976;49.764;9.796;2023-03-01T04:03:21;29.50;;;14.77;;
5900;SDS011;2976;49.764;9.796;2023-03-01T04:05:48;22.98;;;12.55;;
5900;SDS011;2976;49.764;9.796;2023-03-01T04:08:16;24.90;;;13.18;;
5900;SDS011;2976;49.764;9.796;2023-03-01T04:10:47;25.50;;;13.05;;
5900;SDS011;2976;49.764;9.796;2023-03-01T04:13:23;23.13;;;12.45;;
5900;SDS011;2976;49.764;9.796;2023-03-01T04:15:53;24.27;;;11.73;;
5900;SDS011;2976;49.764;9.796;2023-03-01T04:18:20;28.63;;;12.65;;
5900;SDS011;2976;49.764;9.796;2023-03-01T04:20:47;30.23;;;13.18;;
5900;SDS011;2976;49.764;9.796;2023-03-01T04:23:14;26.43;;;12.90;;
5900;SDS011;2976;49.764;9.796;2023-03-01T04:28:14;24.90;;;12.55;;
5900;SDS011;2976;49.764;9.796;2023-03-01T04:30:40;29.90;;;12.40;;
5900;SDS011;2976;49.764;9.796;2023-03-01T04:33:07;23.80;;;12.68;;
5900;SDS011;2976;49.764;9.796;2023-03-01T04:35:33;24.85;;;11.85;;
5900;SDS011;2976;49.764;9.796;2023-03-01T04:38:00;24.88;;;12.30;;
5900;SDS011;2976;49.764;9.796;2023-03-01T04:40:26;32.47;;;13.07;;
5900;SDS011;2976;49.764;9.796;2023-03-01T04:42:52;32.93;;;14.33;;
5900;SDS011;2976;49.764;9.796;2023-03-01T04:45:17;27.63;;;13.70;;
5900;SDS011;2976;49.764;9.796;2023-03-01T04:47:44;25.08;;;11.93;;
5900;SDS011;2976;49.764;9.796;2023-03-01T04:50:12;25.42;;;12.90;;
5900;SDS011;2976;49.764;9.796;2023-03-01T04:52:40;27.17;;;11.82;;
5900;SDS011;2976;49.764;9.796;2023-03-01T04:55:05;23.37;;;12.43;;
5900;SDS011;2976;49.764;9.796;2023-03-01T04:57:32;30.20;;;13.25;;
5900;SDS011;2976;49.764;9.796;2023-03-01T04:59:57;22.60;;;12.50;;
5900;SDS011;2976;49.764;9.796;2023-03-01T05:02:23;24.57;;;13.00;;
5900;SDS011;2976;49.764;9.796;2023-03-01T05:04:49;28.60;;;13.23;;
5900;SDS011;2976;49.764;9.796;2023-03-01T05:07:14;27.53;;;12.90;;
5900;SDS011;2976;49.764;9.796;2023-03-01T05:09:44;23.55;;;12.98;;
5900;SDS011;2976;49.764;9.796;2023-03-01T05:12:11;29.08;;;12.68;;
5900;SDS011;2976;49.764;9.796;2023-03-01T05:14:37;25.50;;;12.98;;
5900;SDS011;2976;49.764;9.796;2023-03-01T05:17:03;25.35;;;11.27;;
5900;SDS011;2976;49.764;9.796;2023-03-01T05:19:29;27.47;;;13.97;;
5900;SDS011;2976;49.764;9.796;2023-03-01T05:21:56;27.60;;;13.88;;
5900;SDS011;2976;49.764;9.796;2023-03-01T05:24:32;22.30;;;10.95;;
5900;SDS011;2976;49.764;9.796;2023-03-01T05:27:00;19.67;;;10.43;;
5900;SDS011;2976;49.764;9.796;2023-03-01T05:29:27;24.77;;;12.77;;
5900;SDS011;2976;49.764;9.796;2023-03-01T05:31:56;22.27;;;12.48;;
5900;SDS011;2976;49.764;9.796;2023-03-01T05:34:27;21.88;;;11.63;;
5900;SDS011;2976;49.764;9.796;2023-03-01T05:36:57;24.50;;;13.18;;
5900;SDS011;2976;49.764;9.796;2023-03-01T05:39:24;26.60;;;11.57;;
5900;SDS011;2976;49.764;9.796;2023-03-01T05:41:55;21.38;;;11.25;;
5900;SDS011;2976;49.764;9.796;2023-03-01T05:44:22;23.83;;;12.98;;
5900;SDS011;2976;49.764;9.796;2023-03-01T05:46:49;25.65;;;11.93;;
5900;SDS011;2976;49.764;9.796;2023-03-01T05:49:15;21.67;;;11.60;;
5900;SDS011;2976;49.764;9.796;2023-03-01T05:51:41;24.00;;;12.48;;
5900;SDS011;2976;49.764;9.796;2023-03-01T05:54:08;22.75;;;12.48;;
5900;SDS011;2976;49.764;9.796;2023-03-01T05:56:34;20.98;;;12.40;;
5900;SDS011;2976;49.764;9.796;2023-03-01T05:59:01;22.10;;;12.20;;
5900;SDS011;2976;49.764;9.796;2023-03-01T06:01:27;24.48;;;12.63;;
5900;SDS011;2976;49.764;9.796;2023-03-01T06:03:54;26.58;;;12.68;;
5900;SDS011;2976;49.764;9.796;2023-03-01T06:06:20;28.85;;;11.57;;
5900;SDS011;2976;49.764;9.796;2023-03-01T06:08:46;28.73;;;12.07;;
5900;SDS011;2976;49.764;9.796;2023-03-01T06:11:12;24.30;;;11.90;;
5900;SDS011;2976;49.764;9.796;2023-03-01T06:13:37;25.37;;;12.57;;
5900;SDS011;2976;49.764;9.796;2023-03-01T06:16:06;22.07;;;12.20;;
5900;SDS011;2976;49.764;9.796;2023-03-01T06:18:32;25.08;;;12.93;;
5900;SDS011;2976;49.764;9.796;2023-03-01T06:20:58;22.10;;;11.90;;
5900;SDS011;2976;49.764;9.796;2023-03-01T06:23:23;30.33;;;14.33;;
5900;SDS011;2976;49.764;9.796;2023-03-01T06:25:49;25.90;;;12.43;;
5900;SDS011;2976;49.764;9.796;2023-03-01T06:28:15;22.83;;;11.90;;
5900;SDS011;2976;49.764;9.796;2023-03-01T06:30:41;23.53;;;12.73;;
5900;SDS011;2976;49.764;9.796;2023-03-01T06:33:07;28.23;;;14.07;;
5900;SDS011;2976;49.764;9.796;2023-03-01T06:35:33;22.73;;;12.27;;
5900;SDS011;2976;49.764;9.796;2023-03-01T06:37:59;29.67;;;13.00;;
5900;SDS011;2976;49.764;9.796;2023-03-01T06:40:26;25.48;;;12.98;;
5900;SDS011;2976;49.764;9.796;2023-03-01T06:42:52;30.45;;;14.35;;
5900;SDS011;2976;49.764;9.796;2023-03-01T06:45:18;27.27;;;13.43;;
5900;SDS011;2976;49.764;9.796;2023-03-01T06:47:45;30.17;;;14.25;;
5900;SDS011;2976;49.764;9.796;2023-03-01T06:50:11;30.50;;;13.85;;
5900;SDS011;2976;49.764;9.796;2023-03-01T06:52:38;22.75;;;11.95;;
5900;SDS011;2976;49.764;9.796;2023-03-01T06:55:04;18.80;;;10.83;;
5900;SDS011;2976;49.764;9.796;2023-03-01T06:57:30;24.05;;;12.85;;
5900;SDS011;2976;49.764;9.796;2023-03-01T06:59:56;22.27;;;11.73;;
5900;SDS011;2976;49.764;9.796;2023-03-01T07:02:22;20.30;;;11.53;;
5900;SDS011;2976;49.764;9.796;2023-03-01T07:04:51;28.63;;;13.53;;
5900;SDS011;2976;49.764;9.796;2023-03-01T07:07:17;20.17;;;11.70;;
5900;SDS011;2976;49.764;9.796;2023-03-01T07:09:48;25.20;;;12.00;;
5900;SDS011;2976;49.764;9.796;2023-03-01T07:12:14;21.70;;;11.43;;
5900;SDS011;2976;49.764;9.796;2023-03-01T07:14:40;20.83;;;11.00;;
5900;SDS011;2976;49.764;9.796;2023-03-01T07:17:06;32.03;;;11.30;;
5900;SDS011;2976;49.764;9.796;2023-03-01T07:19:32;20.63;;;11.70;;
5900;SDS011;2976;49.764;9.796;2023-03-01T07:21:57;24.03;;;11.20;;
5900;SDS011;2976;49.764;9.796;2023-03-01T07:24:23;23.00;;;12.90;;
5900;SDS011;2976;49.764;9.796;2023-03-01T07:26:49;26.80;;;12.80;;
5900;SDS011;2976;49.764;9.796;2023-03-01T07:29:16;21.50;;;11.57;;
5900;SDS011;2976;49.764;9.796;2023-03-01T07:31:42;19.90;;;11.77;;
5900;SDS011;2976;49.764;9.796;2023-03-01T07:34:07;26.20;;;12.30;;
5900;SDS011;2976;49.764;9.796;2023-03-01T07:36:33;21.10;;;11.90;;
5900;SDS011;2976;49.764;9.796;2023-03-01T07:38:58;22.93;;;12.47;;
5900;SDS011;2976;49.764;9.796;2023-03-01T07:41:27;22.53;;;11.47;;
5900;SDS011;2976;49.764;9.796;2023-03-01T07:43:52;20.70;;;12.00;;
5900;SDS011;2976;49.764;9.796;2023-03-01T07:46:18;20.13;;;11.33;;
5900;SDS011;2976;49.764;9.796;2023-03-01T07:48:44;24.43;;;12.80;;
5900;SDS011;2976;49.764;9.796;2023-03-01T07:51:09;22.47;;;11.10;;
5900;SDS011;2976;49.764;9.796;2023-03-01T07:53:35;25.37;;;12.13;;
5900;SDS011;2976;49.764;9.796;2023-03-01T07:56:02;18.93;;;11.40;;
5900;SDS011;2976;49.764;9.796;2023-03-01T07:58:29;24.77;;;11.73;;
5900;SDS011;2976;49.764;9.796;2023-03-01T08:00:54;24.17;;;11.80;;
5900;SDS011;2976;49.764;9.796;2023-03-01T08:03:20;19.97;;;12.33;;
5900;SDS011;2976;49.764;9.796;2023-03-01T08:05:46;23.03;;;11.63;;
5900;SDS011;2976;49.764;9.796;2023-03-01T08:08:11;20.53;;;12.70;;
5900;SDS011;2976;49.764;9.796;2023-03-01T08:10:37;19.27;;;11.27;;
5900;SDS011;2976;49.764;9.796;2023-03-01T08:13:02;22.03;;;11.90;;
5900;SDS011;2976;49.764;9.796;2023-03-01T08:15:28;20.83;;;11.70;;
5900;SDS011;2976;49.764;9.796;2023-03-01T08:17:53;21.07;;;11.33;;
5900;SDS011;2976;49.764;9.796;2023-03-01T08:20:19;18.13;;;12.10;;
5900;SDS011;2976;49.764;9.796;2023-03-01T08:22:45;22.17;;;11.80;;
5900;SDS011;2976;49.764;9.796;2023-03-01T08:25:10;21.70;;;12.03;;
5900;SDS011;2976;49.764;9.796;2023-03-01T08:27:36;21.40;;;12.60;;
5900;SDS011;2976;49.764;9.796;2023-03-01T08:30:01;16.00;;;10.60;;
5900;SDS011;2976;49.764;9.796;2023-03-01T08:32:27;21.70;;;11.23;;
5900;SDS011;2976;49.764;9.796;2023-03-01T08:34:53;20.20;;;12.00;;
5900;SDS011;2976;49.764;9.796;2023-03-01T08:37:18;18.47;;;10.87;;
5900;SDS011;2976;49.764;9.796;2023-03-01T08:39:44;21.90;;;11.90;;
5900;SDS011;2976;49.764;9.796;2023-03-01T08:42:10;18.77;;;11.50;;
5900;SDS011;2976;49.764;9.796;2023-03-01T08:44:35;16.57;;;11.47;;
5900;SDS011;2976;49.764;9.796;2023-03-01T08:47:01;19.90;;;11.60;;
5900;SDS011;2976;49.764;9.796;2023-03-01T08:49:27;20.70;;;11.93;;
5900;SDS011;2976;49.764;9.796;2023-03-01T08:51:52;19.53;;;12.20;;
5900;SDS011;2976;49.764;9.796;2023-03-01T08:54:20;21.47;;;11.00;;
5900;SDS011;2976;49.764;9.796;2023-03-01T08:56:46;24.27;;;13.67;;
5900;SDS011;2976;49.764;9.796;2023-03-01T08:59:13;22.23;;;12.67;;
5900;SDS011;2976;49.764;9.796;2023-03-01T09:01:40;19.17;;;11.53;;
5900;SDS011;2976;49.764;9.796;2023-03-01T09:04:08;23.43;;;12.90;;
5900;SDS011;2976;49.764;9.796;2023-03-01T09:06:34;20.27;;;11.27;;
5900;SDS011;2976;49.764;9.796;2023-03-01T09:09:01;18.67;;;12.50;;
5900;SDS011;2976;49.764;9.796;2023-03-01T09:11:27;20.80;;;12.80;;
5900;SDS011;2976;49.764;9.796;2023-03-01T09:13:53;21.80;;;12.83;;
5900;SDS011;2976;49.764;9.796;2023-03-01T09:16:19;24.70;;;13.13;;
5900;SDS011;2976;49.764;9.796;2023-03-01T09:18:49;20.00;;;12.23;;
5900;SDS011;2976;49.764;9.796;2023-03-01T09:21:16;24.50;;;12.60;;
5900;SDS011;2976;49.764;9.796;2023-03-01T09:23:44;19.20;;;12.00;;
5900;SDS011;2976;49.764;9.796;2023-03-01T09:26:15;20.50;;;11.97;;
5900;SDS011;2976;49.764;9.796;2023-03-01T09:28:44;21.90;;;12.50;;
5900;SDS011;2976;49.764;9.796;2023-03-01T09:31:10;20.50;;;13.00;;
5900;SDS011;2976;49.764;9.796;2023-03-01T09:33:38;18.07;;;12.13;;
5900;SDS011;2976;49.764;9.796;2023-03-01T09:36:05;18.00;;;11.70;;
5900;SDS011;2976;49.764;9.796;2023-03-01T09:38:33;24.50;;;14.10;;
5900;SDS011;2976;49.764;9.796;2023-03-01T09:40:59;21.27;;;12.47;;
5900;SDS011;2976;49.764;9.796;2023-03-01T09:45:58;24.23;;;12.20;;
5900;SDS011;2976;49.764;9.796;2023-03-01T09:48:29;21.07;;;12.67;;
5900;SDS011;2976;49.764;9.796;2023-03-01T09:51:02;17.90;;;11.50;;
5900;SDS011;2976;49.764;9.796;2023-03-01T09:53:33;20.17;;;12.37;;
5900;SDS011;2976;49.764;9.796;2023-03-01T09:56:12;25.23;;;12.97;;
5900;SDS011;2976;49.764;9.796;2023-03-01T10:01:56;18.90;;;12.33;;
5900;SDS011;2976;49.764;9.796;2023-03-01T10:04:41;19.87;;;12.37;;
5900;SDS011;2976;49.764;9.796;2023-03-01T10:09:57;23.77;;;13.13;;
5900;SDS011;2976;49.764;9.796;2023-03-01T10:12:26;18.70;;;11.20;;
5900;SDS011;2976;49.764;9.796;2023-03-01T10:17:45;20.37;;;11.30;;
5900;SDS011;2976;49.764;9.796;2023-03-01T10:20:16;21.07;;;12.33;;
5900;SDS011;2976;49.764;9.796;2023-03-01T10:22:51;21.00;;;11.83;;
5900;SDS011;2976;49.764;9.796;2023-03-01T10:26:01;20.97;;;13.27;;
5900;SDS011;2976;49.764;9.796;2023-03-01T10:28:17;22.30;;;13.20;;
5900;SDS011;2976;49.764;9.796;2023-03-01T10:30:49;22.93;;;11.70;;
5900;SDS011;2976;49.764;9.796;2023-03-01T10:33:17;25.20;;;13.17;;
5900;SDS011;2976;49.764;9.796;2023-03-01T10:35:48;23.23;;;12.93;;
5900;SDS011;2976;49.764;9.796;2023-03-01T10:38:14;20.90;;;13.00;;
5900;SDS011;2976;49.764;9.796;2023-03-01T10:43:27;26.60;;;13.47;;
5900;SDS011;2976;49.764;9.796;2023-03-01T10:45:57;20.07;;;11.83;;
5900;SDS011;2976;49.764;9.796;2023-03-01T10:48:24;23.53;;;12.47;;
5900;SDS011;2976;49.764;9.796;2023-03-01T10:53:34;19.30;;;11.90;;
5900;SDS011;2976;49.764;9.796;2023-03-01T10:56:09;20.10;;;12.83;;
5900;SDS011;2976;49.764;9.796;2023-03-01T10:59:03;31.30;;;14.13;;
5900;SDS011;2976;49.764;9.796;2023-03-01T11:01:37;20.20;;;12.70;;
5900;SDS011;2976;49.764;9.796;2023-03-01T11:06:31;20.80;;;12.90;;
5900;SDS011;2976;49.764;9.796;2023-03-01T11:09:01;19.10;;;12.43;;
5900;SDS011;2976;49.764;9.796;2023-03-01T11:11:44;27.40;;;12.87;;
5900;SDS011;2976;49.764;9.796;2023-03-01T11:14:15;22.60;;;12.10;;
5900;SDS011;2976;49.764;9.796;2023-03-01T11:16:44;18.53;;;12.00;;
5900;SDS011;2976;49.764;9.796;2023-03-01T11:21:38;21.20;;;12.60;;
5900;SDS011;2976;49.764;9.796;2023-03-01T11:24:15;29.23;;;15.40;;
5900;SDS011;2976;49.764;9.796;2023-03-01T11:26:51;23.50;;;13.50;;
5900;SDS011;2976;49.764;9.796;2023-03-01T11:29:38;20.40;;;12.43;;
5900;SDS011;2976;49.764;9.796;2023-03-01T11:32:08;22.80;;;13.00;;
5900;SDS011;2976;49.764;9.796;2023-03-01T11:34:40;28.20;;;12.13;;
5900;SDS011;2976;49.764;9.796;2023-03-01T11:45:23;23.90;;;12.70;;
5900;SDS011;2976;49.764;9.796;2023-03-01T11:48:07;20.10;;;13.33;;
5900;SDS011;2976;49.764;9.796;2023-03-01T11:50:57;18.13;;;11.27;;
5900;SDS011;2976;49.764;9.796;2023-03-01T12:09:52;23.77;;;12.67;;
5900;SDS011;2976;49.764;9.796;2023-03-01T12:23:59;20.77;;;11.90;;
5900;SDS011;2976;49.764;9.796;2023-03-01T12:26:56;20.93;;;11.97;;
5900;SDS011;2976;49.764;9.796;2023-03-01T12:32:39;20.90;;;12.27;;
5900;SDS011;2976;49.764;9.796;2023-03-01T12:35:14;19.50;;;11.77;;
5900;SDS011;2976;49.764;9.796;2023-03-01T12:37:58;25.80;;;12.40;;
5900;SDS011;2976;49.764;9.796;2023-03-01T12:51:30;16.40;;;10.20;;
5900;SDS011;2976;49.764;9.796;2023-03-01T12:53:58;17.40;;;11.00;;
5900;SDS011;2976;49.764;9.796;2023-03-01T12:56:31;15.77;;;10.83;;
5900;SDS011;2976;49.764;9.796;2023-03-01T13:07:14;19.53;;;11.60;;
5900;SDS011;2976;49.764;9.796;2023-03-01T13:20:16;25.37;;;12.80;;
5900;SDS011;2976;49.764;9.796;2023-03-01T13:22:44;21.80;;;11.70;;
5900;SDS011;2976;49.764;9.796;2023-03-01T13:25:13;22.40;;;12.47;;
5900;SDS011;2976;49.764;9.796;2023-03-01T13:27:44;22.90;;;11.67;;
5900;SDS011;2976;49.764;9.796;2023-03-01T13:36:06;16.03;;;10.07;;
5900;SDS011;2976;49.764;9.796;2023-03-01T13:38:46;17.80;;;10.70;;
5900;SDS011;2976;49.764;9.796;2023-03-01T13:46:52;19.50;;;11.90;;
5900;SDS011;2976;49.764;9.796;2023-03-01T13:49:21;17.80;;;10.90;;
5900;SDS011;2976;49.764;9.796;2023-03-01T13:51:50;16.97;;;11.30;;
5900;SDS011;2976;49.764;9.796;2023-03-01T13:54:18;20.07;;;11.70;;
5900;SDS011;2976;49.764;9.796;2023-03-01T13:56:55;17.30;;;11.67;;
5900;SDS011;2976;49.764;9.796;2023-03-01T13:59:23;15.03;;;9.93;;
5900;SDS011;2976;49.764;9.796;2023-03-01T14:01:55;20.37;;;11.07;;
5900;SDS011;2976;49.764;9.796;2023-03-01T14:04:29;19.43;;;11.20;;
5900;SDS011;2976;49.764;9.796;2023-03-01T14:07:19;19.80;;;11.03;;
5900;SDS011;2976;49.764;9.796;2023-03-01T14:09:51;16.80;;;10.53;;
5900;SDS011;2976;49.764;9.796;2023-03-01T14:15:33;20.83;;;10.80;;
5900;SDS011;2976;49.764;9.796;2023-03-01T14:18:07;17.60;;;9.97;;
5900;SDS011;2976;49.764;9.796;2023-03-01T14:20:44;15.97;;;10.70;;
5900;SDS011;2976;49.764;9.796;2023-03-01T14:23:17;15.87;;;9.77;;
5900;SDS011;2976;49.764;9.796;2023-03-01T14:25:51;16.57;;;10.63;;
5900;SDS011;2976;49.764;9.796;2023-03-01T14:28:19;16.07;;;10.53;;
5900;SDS011;2976;49.764;9.796;2023-03-01T14:30:51;16.03;;;11.20;;
5900;SDS011;2976;49.764;9.796;2023-03-01T14:33:40;14.53;;;10.30;;
5900;SDS011;2976;49.764;9.796;2023-03-01T14:36:09;17.57;;;9.63;;
5900;SDS011;2976;49.764;9.796;2023-03-01T14:41:10;17.70;;;10.40;;
5900;SDS011;2976;49.764;9.796;2023-03-01T14:43:41;17.63;;;10.20;;
5900;SDS011;2976;49.764;9.796;2023-03-01T14:48:54;16.10;;;9.97;;
5900;SDS011;2976;49.764;9.796;2023-03-01T14:51:23;18.87;;;10.23;;
5900;SDS011;2976;49.764;9.796;2023-03-01T14:53:49;16.07;;;9.87;;
5900;SDS011;2976;49.764;9.796;2023-03-01T14:56:16;16.77;;;10.27;;
5900;SDS011;2976;49.764;9.796;2023-03-01T14:58:42;17.47;;;10.00;;
5900;SDS011;2976;49.764;9.796;2023-03-01T15:01:13;14.27;;;8.90;;
5900;SDS011;2976;49.764;9.796;2023-03-01T15:03:42;15.87;;;10.17;;
5900;SDS011;2976;49.764;9.796;2023-03-01T15:06:10;15.77;;;9.47;;
5900;SDS011;2976;49.764;9.796;2023-03-01T15:08:44;14.13;;;9.63;;
5900;SDS011;2976;49.764;9.796;2023-03-01T15:11:22;16.30;;;10.57;;
5900;SDS011;2976;49.764;9.796;2023-03-01T15:13:56;16.53;;;9.70;;
5900;SDS011;2976;49.764;9.796;2023-03-01T15:21:27;17.43;;;9.93;;
5900;SDS011;2976;49.764;9.796;2023-03-01T15:24:16;12.90;;;8.90;;
5900;SDS011;2976;49.764;9.796;2023-03-01T15:27:01;14.00;;;9.27;;
5900;SDS011;2976;49.764;9.796;2023-03-01T15:29:32;22.57;;;9.63;;
5900;SDS011;2976;49.764;9.796;2023-03-01T15:38:00;20.80;;;9.30;;
5900;SDS011;2976;49.764;9.796;2023-03-01T15:40:27;17.80;;;10.20;;
5900;SDS011;2976;49.764;9.796;2023-03-01T15:45:27;16.40;;;8.97;;
5900;SDS011;2976;49.764;9.796;2023-03-01T15:47:55;17.50;;;8.73;;
5900;SDS011;2976;49.764;9.796;2023-03-01T15:50:24;15.47;;;9.70;;
5900;SDS011;2976;49.764;9.796;2023-03-01T15:52:52;11.60;;;8.00;;
5900;SDS011;2976;49.764;9.796;2023-03-01T15:55:20;18.43;;;8.80;;
5900;SDS011;2976;49.764;9.796;2023-03-01T15:57:48;12.37;;;8.50;;
5900;SDS011;2976;49.764;9.796;2023-03-01T16:00:15;19.90;;;9.37;;
5900;SDS011;2976;49.764;9.796;2023-03-01T16:02:42;22.80;;;10.33;;
5900;SDS011;2976;49.764;9.796;2023-03-01T16:05:19;14.50;;;7.57;;
5900;SDS011;2976;49.764;9.796;2023-03-01T16:07:48;15.70;;;9.00;;
5900;SDS011;2976;49.764;9.796;2023-03-01T16:10:14;14.93;;;8.57;;
5900;SDS011;2976;49.764;9.796;2023-03-01T16:12:40;14.40;;;9.13;;
5900;SDS011;2976;49.764;9.796;2023-03-01T16:15:17;16.40;;;9.23;;
5900;SDS011;2976;49.764;9.796;2023-03-01T16:17:45;18.43;;;9.50;;
5900;SDS011;2976;49.764;9.796;2023-03-01T16:20:11;13.33;;;9.90;;
5900;SDS011;2976;49.764;9.796;2023-03-01T16:22:37;16.33;;;9.67;;
5900;SDS011;2976;49.764;9.796;2023-03-01T16:25:03;15.47;;;9.30;;
5900;SDS011;2976;49.764;9.796;2023-03-01T16:27:28;17.63;;;10.43;;
5900;SDS011;2976;49.764;9.796;2023-03-01T16:29:54;20.33;;;10.20;;
5900;SDS011;2976;49.764;9.796;2023-03-01T16:32:20;15.90;;;9.47;;
5900;SDS011;2976;49.764;9.796;2023-03-01T16:34:45;15.90;;;9.80;;
5900;SDS011;2976;49.764;9.796;2023-03-01T16:37:14;12.10;;;9.13;;
5900;SDS011;2976;49.764;9.796;2023-03-01T16:39:40;18.27;;;10.20;;
5900;SDS011;2976;49.764;9.796;2023-03-01T16:42:05;14.67;;;9.70;;
5900;SDS011;2976;49.764;9.796;2023-03-01T16:44:31;21.50;;;11.47;;
5900;SDS011;2976;49.764;9.796;2023-03-01T16:46:57;14.20;;;8.67;;
5900;SDS011;2976;49.764;9.796;2023-03-01T16:49:22;18.60;;;10.23;;
5900;SDS011;2976;49.764;9.796;2023-03-01T16:51:48;15.03;;;9.33;;
5900;SDS011;2976;49.764;9.796;2023-03-01T16:54:13;22.27;;;11.80;;
5900;SDS011;2976;49.764;9.796;2023-03-01T16:56:39;18.93;;;10.40;;
5900;SDS011;2976;49.764;9.796;2023-03-01T16:59:05;19.80;;;10.47;;
5900;SDS011;2976;49.764;9.796;2023-03-01T17:01:31;12.70;;;9.03;;
5900;SDS011;2976;49.764;9.796;2023-03-01T17:04:04;31.30;;;13.90;;
5900;SDS011;2976;49.764;9.796;2023-03-01T17:06:30;18.73;;;11.40;;
5900;SDS011;2976;49.764;9.796;2023-03-01T17:08:57;20.17;;;9.83;;
5900;SDS011;2976;49.764;9.796;2023-03-01T17:11:23;15.60;;;10.10;;